This is the latest recevied weather packets stored in our database for station/object WW5JC. If no packets are shown the sender has not sent any weather packets the latest 10 day(s).
| Time | Temp. | Humidity | Pressure | Rain* | Wind** | Luminosity | Snow |
|---|---|---|---|---|---|---|---|
| 1777314165 | 30° C | 80% | 1010.2 hPa | 0 mm | - | 688 W/m² | - |
| 1777313864 | 30° C | 79% | 1010.1 hPa | 0 mm | - | 719 W/m² | - |
| 1777313560 | 28.89° C | 82% | 1010.2 hPa | 0 mm | - | 680 W/m² | - |
| 1777313258 | 28.89° C | 79% | 1010.3 hPa | 0 mm | - | 316 W/m² | - |
| 1777312954 | 28.89° C | 78% | 1010 hPa | 0 mm | - | 701 W/m² | - |
| 1777312651 | 29.44° C | 78% | 1010.4 hPa | 0 mm | - | 687 W/m² | - |
| 1777312348 | 28.89° C | 83% | 1010.3 hPa | 0 mm | - | 579 W/m² | - |
| 1777312045 | 28.89° C | 81% | 1010.4 hPa | 0 mm | - | 300 W/m² | - |
| 1777311741 | 28.89° C | 79% | 1010.2 hPa | 0 mm | - | 381 W/m² | - |
| 1777311439 | 28.89° C | 80% | 1010.2 hPa | 0 mm | - | 552 W/m² | - |
| 1777311136 | 28.89° C | 80% | 1010.3 hPa | 0 mm | - | 366 W/m² | - |
| 1777310835 | 28.33° C | 81% | 1010.4 hPa | 0 mm | - | 687 W/m² | - |
| 1777310532 | 28.33° C | 81% | 1010.3 hPa | 0 mm | - | 533 W/m² | - |
| 1777310228 | 28.33° C | 82% | 1010.5 hPa | 0 mm | - | 459 W/m² | - |
| 1777309926 | 28.33° C | 81% | 1010.4 hPa | 0 mm | - | 348 W/m² | - |
| 1777309624 | 28.33° C | 80% | 1010.6 hPa | 0 mm | - | 632 W/m² | - |
| 1777309321 | 28.33° C | 81% | 1010.6 hPa | 0 mm | - | 594 W/m² | - |
| 1777309019 | 27.78° C | 82% | 1010.7 hPa | 0 mm | - | 636 W/m² | - |
| 1777308715 | 27.78° C | 82% | 1010.7 hPa | 0 mm | - | 619 W/m² | - |
| 1777308410 | 27.78° C | 82% | 1010.6 hPa | 0 mm | - | 293 W/m² | - |
| 1777308106 | 27.78° C | 82% | 1010.5 hPa | 0 mm | - | 376 W/m² | - |
| 1777307804 | 27.78° C | 82% | 1010.5 hPa | 0 mm | - | 279 W/m² | - |
| 1777307501 | 27.78° C | 81% | 1010.4 hPa | 0 mm | - | 610 W/m² | - |
| 1777307198 | 27.22° C | 83% | 1010.4 hPa | 0 mm | - | 490 W/m² | - |
| 1777306895 | 27.22° C | 82% | 1010.6 hPa | 0 mm | - | 599 W/m² | - |
* Rain latest hour (hover to see other rain measurements)
** Current wind speed in m/s (hover to see current wind gust speed)